Stations météo

réclame
Mon MeteoGroup
Gemini, Pays-Bas (6214): Température de l'air & dewpoint: 12.01.2019 13:00:00 - 18.01.2019 13:00:00 (CET)Gemini, Pays-Bas (6214): Vitesse du vent & gusts: 12.01.2019 13:00:00 - 18.01.2019 13:00:00 (CET)Gemini, Pays-Bas (6214): Direction du vent: 12.01.2019 13:00:00 - 18.01.2019 13:00:00 (CET)Gemini, Pays-Bas (6214): reduced air pressure: 12.01.2019 13:00:00 - 18.01.2019 13:00:00 (CET)
Date & Time tt [°C] td [°C] ff [km/h] ff [knt] fx [km/h] fx [knt] dd ppp [hPa]
18.01.2019 13:00:00 5,8 -0,4 15 8 - - NW 1017,9
18.01.2019 12:00:00 6,2 -0,5 15 8 22 12 NNW 1017,7
18.01.2019 11:00:00 5,8 1,1 9 5 14 8 NW 1017,4
18.01.2019 10:00:00 5,1 1,2 11 6 29 16 N 1017,1
18.01.2019 09:00:00 4,3 0,5 28 15 36 19 NNW 1016,3
18.01.2019 08:00:00 5,2 0,8 18 10 32 18 N 1015,6
18.01.2019 07:00:00 4,7 0,3 21 11 47 25 WNW 1015,6
18.01.2019 06:00:00 4,7 0,5 31 17 43 23 NW 1014,7
18.01.2019 05:00:00 5,5 0,4 26 14 36 19 NNW 1014,3
18.01.2019 04:00:00 5,7 -2,1 15 8 25 14 NNW 1013,9
18.01.2019 03:00:00 5,3 -2,5 21 11 29 16 NNW 1013,7
18.01.2019 02:00:00 4,9 -2,7 13 7 29 16 NNW 1013,1
18.01.2019 01:00:00 4,5 -3,7 24 13 36 19 N 1012,8
18.01.2019 00:00:00 4,2 -3,2 26 14 43 23 NNE 1011,7
17.01.2019 23:00:00 4,3 -4,2 37 20 47 25 NNE 1010,5
17.01.2019 22:00:00 3,8 -0,8 46 25 58 31 NE 1009,0
17.01.2019 21:00:00 4,4 -1,7 57 31 65 35 NNE 1006,9
17.01.2019 20:00:00 5,4 -3,6 50 27 72 39 N 1004,8
17.01.2019 19:00:00 4,2 -2,5 55 30 65 35 N 1003,5
17.01.2019 18:00:00 5,7 -1,9 34 18 72 39 NNW 1002,0
17.01.2019 17:00:00 4,9 -0,2 44 24 54 29 N 1001,3
17.01.2019 16:00:00 4,6 -0,5 44 24 58 31 N 1000,2
17.01.2019 15:00:00 3,2 0,4 46 25 65 35 NNW 999,1
17.01.2019 14:00:00 4,2 0,3 48 26 50 27 NNW 998,4
17.01.2019 13:00:00 3,9 0,6 34 18 58 31 NNW 998,1
17.01.2019 12:00:00 4,6 0,9 34 18 54 29 N 997,9
17.01.2019 11:00:00 4,8 0,4 44 24 50 27 NNW 997,1
17.01.2019 10:00:00 5,1 1,5 44 24 54 29 N 996,3
17.01.2019 09:00:00 5,5 1,5 34 18 47 25 NW 995,1
17.01.2019 08:00:00 4,8 2,3 44 24 58 31 WNW 994,3
17.01.2019 07:00:00 5,9 2,6 57 31 61 33 WNW 994,9
17.01.2019 06:00:00 6,1 2,3 57 31 65 35 W 994,8
17.01.2019 05:00:00 6,6 2,5 48 26 54 29 W 994,9
17.01.2019 04:00:00 6,2 2,2 44 24 50 27 W 995,2
17.01.2019 03:00:00 6,2 1,9 41 22 58 31 W 995,6
17.01.2019 02:00:00 6,9 2,5 42 23 47 25 W 995,7
17.01.2019 01:00:00 6,9 3,2 37 20 40 21 WNW 995,5
17.01.2019 00:00:00 5,8 2,8 28 15 40 21 WNW 995,5
16.01.2019 23:00:00 6,3 2,0 31 17 36 19 W 995,9
16.01.2019 22:00:00 6,2 3,1 26 14 40 21 W 996,1
16.01.2019 21:00:00 6,2 3,9 35 19 58 31 NW 996,2
16.01.2019 20:00:00 6,9 6,2 61 33 68 37 SW 996,9
16.01.2019 19:00:00 7,1 6,3 54 29 65 35 SW 997,4
16.01.2019 18:00:00 7,4 6,8 55 30 61 33 WSW 997,7
16.01.2019 17:00:00 7,3 6,8 54 29 58 31 WSW 998,5
16.01.2019 16:00:00 7,7 6,7 52 28 61 33 WSW 999,2
16.01.2019 15:00:00 7,8 6,7 57 31 61 33 WSW 999,8
16.01.2019 14:00:00 8,0 6,6 61 33 61 33 WSW 1001,0
16.01.2019 13:00:00 8,0 6,7 55 30 58 31 WSW 1001,7
16.01.2019 12:00:00 7,9 6,8 54 29 54 29 WSW 1002,3
16.01.2019 11:00:00 7,8 6,6 46 25 50 27 WSW 1003,2
16.01.2019 10:00:00 7,8 6,5 50 27 54 29 WSW 1004,0
16.01.2019 09:00:00 7,9 6,3 44 24 47 25 WSW 1004,3
16.01.2019 08:00:00 7,9 6,1 37 20 43 23 WSW 1004,3
16.01.2019 07:00:00 7,8 6,3 31 17 43 23 WSW 1004,8
16.01.2019 06:00:00 7,8 6,3 31 17 43 23 W 1005,3
16.01.2019 05:00:00 7,9 6,2 41 22 47 25 WSW 1006,1
16.01.2019 04:00:00 7,9 6,1 35 19 47 25 W 1006,5
16.01.2019 03:00:00 7,8 6,1 44 24 47 25 W 1007,4
16.01.2019 02:00:00 7,8 5,9 46 25 47 25 W 1007,9
16.01.2019 01:00:00 7,9 5,8 46 25 50 27 W 1008,3
16.01.2019 00:00:00 8,0 5,6 46 25 47 25 W 1008,7
15.01.2019 23:00:00 8,1 5,4 44 24 47 25 W 1009,2
15.01.2019 22:00:00 8,2 5,5 44 24 50 27 W 1009,4
15.01.2019 21:00:00 8,3 5,9 50 27 50 27 W 1009,4
15.01.2019 20:00:00 8,3 6,2 48 26 50 27 W 1009,7
15.01.2019 19:00:00 8,2 6,4 46 25 50 27 W 1009,6
15.01.2019 18:00:00 8,3 6,4 46 25 50 27 W 1009,6
15.01.2019 17:00:00 8,2 6,4 46 25 47 25 WNW 1009,9
15.01.2019 16:00:00 8,1 6,4 50 27 54 29 WNW 1009,9
15.01.2019 15:00:00 8,0 6,2 52 28 54 29 W 1010,0
15.01.2019 14:00:00 8,0 6,1 52 28 54 29 WNW 1010,2
15.01.2019 13:00:00 7,9 6,1 48 26 54 29 W 1010,5
15.01.2019 12:00:00 7,8 6,1 46 25 50 27 W 1011,0
15.01.2019 11:00:00 7,7 6,0 44 24 47 25 W 1011,5
15.01.2019 10:00:00 7,6 6,0 46 25 47 25 W 1011,7
15.01.2019 09:00:00 7,6 5,7 42 23 47 25 W 1011,7
15.01.2019 08:00:00 7,6 5,5 39 21 40 21 W 1012,0
15.01.2019 07:00:00 7,6 5,0 31 17 43 23 WNW 1012,2
15.01.2019 06:00:00 7,6 4,9 39 21 43 23 WNW 1012,7
15.01.2019 05:00:00 7,4 4,7 42 23 47 25 WNW 1013,3
15.01.2019 04:00:00 7,1 4,4 48 26 50 27 W 1014,3
15.01.2019 03:00:00 6,8 3,6 44 24 47 25 W 1014,5
15.01.2019 02:00:00 6,4 1,5 46 25 50 27 W 1015,4
15.01.2019 01:00:00 6,3 0,7 39 21 47 25 W 1015,6
15.01.2019 00:00:00 6,1 0,7 28 15 40 21 WNW 1016,1
14.01.2019 23:00:00 6,1 0,0 34 18 40 21 NW 1015,9
14.01.2019 22:00:00 6,1 -1,1 31 17 47 25 NNW 1016,1
14.01.2019 21:00:00 5,9 -2,1 46 25 50 27 N 1015,9
14.01.2019 20:00:00 6,0 -0,8 42 23 54 29 N 1015,6
14.01.2019 19:00:00 5,9 -1,3 50 27 54 29 N 1014,9
14.01.2019 18:00:00 5,9 -2,4 55 30 58 31 N 1014,2
14.01.2019 17:00:00 5,4 -0,9 52 28 65 35 N 1013,6
14.01.2019 16:00:00 5,5 -1,9 59 32 65 35 N 1013,0
14.01.2019 15:00:00 5,3 -2,3 67 36 68 37 N 1012,4
14.01.2019 14:00:00 5,6 -3,4 61 33 68 37 N 1011,6
14.01.2019 13:00:00 4,9 -0,7 55 30 72 39 N 1011,0
14.01.2019 12:00:00 5,3 -2,2 59 32 72 39 N 1010,6
14.01.2019 11:00:00 4,9 -0,7 57 31 76 41 NNW 1010,2
14.01.2019 10:00:00 4,1 0,6 59 32 68 37 N 1009,6
14.01.2019 09:00:00 5,0 0,0 50 27 61 33 N 1009,0
14.01.2019 08:00:00 5,5 -1,8 67 36 72 39 N 1007,9
14.01.2019 07:00:00 4,0 0,1 70 38 79 43 N 1007,4
14.01.2019 06:00:00 5,7 0,0 55 30 61 33 N 1006,5
14.01.2019 05:00:00 4,8 1,3 50 27 61 33 N 1006,1
14.01.2019 04:00:00 6,2 -0,2 48 26 50 27 N 1005,2
14.01.2019 03:00:00 6,3 0,5 44 24 58 31 N 1004,1
14.01.2019 02:00:00 6,2 -1,5 55 30 61 33 N 1003,2
14.01.2019 01:00:00 6,3 0,5 54 29 54 29 N 1001,7
14.01.2019 00:00:00 6,8 1,4 50 27 58 31 N 1000,6
13.01.2019 23:00:00 7,0 2,0 50 27 50 27 N 999,6
13.01.2019 22:00:00 7,2 3,5 46 25 58 31 N 998,4
13.01.2019 21:00:00 7,8 4,7 54 29 68 37 NNW 997,4
13.01.2019 20:00:00 7,8 4,7 59 32 68 37 NNW 996,4
13.01.2019 19:00:00 8,3 4,4 65 35 72 39 NW 995,7
13.01.2019 18:00:00 8,4 4,3 67 36 76 41 NW 995,2
13.01.2019 17:00:00 8,5 5,5 65 35 72 39 NW 995,2
13.01.2019 16:00:00 8,9 5,6 68 37 72 39 NW 995,1
13.01.2019 15:00:00 8,8 4,6 74 40 79 43 NW 995,2
13.01.2019 14:00:00 9,0 7,0 61 33 65 35 WNW 996,1
13.01.2019 13:00:00 8,8 7,2 43 23 50 27 WNW 997,1
13.01.2019 12:00:00 8,7 7,1 50 27 58 31 WNW 998,2
13.01.2019 11:00:00 8,6 7,2 50 27 50 27 WNW 999,5
13.01.2019 10:00:00 8,5 7,4 52 28 54 29 NW 1000,1
13.01.2019 09:00:00 8,4 7,5 48 26 50 27 NW 1000,5
13.01.2019 08:00:00 8,2 7,6 50 27 50 27 NW 1000,9
13.01.2019 07:00:00 8,3 7,8 48 26 50 27 WNW 1001,6
13.01.2019 06:00:00 8,3 7,9 41 22 43 23 WNW 1002,6
13.01.2019 05:00:00 8,0 7,5 31 17 36 19 W 1003,7
13.01.2019 04:00:00 8,2 7,1 39 21 40 21 W 1005,1
13.01.2019 03:00:00 8,2 6,7 35 19 36 19 WNW 1006,0
13.01.2019 02:00:00 8,1 6,3 41 22 47 25 WNW 1006,1
13.01.2019 01:00:00 8,1 6,1 44 24 47 25 NW 1007,3
13.01.2019 00:00:00 8,0 5,8 36 19 47 25 NW 1007,2
12.01.2019 23:00:00 8,1 5,8 48 26 50 27 NW 1007,5
12.01.2019 22:00:00 8,0 5,9 42 23 50 27 NW 1007,7
12.01.2019 21:00:00 8,0 5,6 46 25 50 27 NW 1007,7
12.01.2019 20:00:00 7,9 5,3 46 25 50 27 NW 1008,2
12.01.2019 19:00:00 8,0 5,3 48 26 50 27 NW 1008,3
12.01.2019 18:00:00 8,1 5,0 46 25 50 27 NW 1008,3
12.01.2019 17:00:00 7,9 5,5 46 25 50 27 NW 1008,1
12.01.2019 16:00:00 8,1 5,2 42 23 47 25 NW 1008,7
12.01.2019 15:00:00 8,2 5,3 48 26 54 29 NW 1009,0
12.01.2019 14:00:00 8,1 5,6 48 26 50 27 NW 1009,3
12.01.2019 13:00:00 8,2 5,7 48 26 50 27 NW 1010,1

tt = Température de l'air
td = dewpoint
ff = Vitesse du vent
fx = gusts
dd = Direction du vent
ppp = reduced air pressure

stations d'obs. à proximité